sensor_id;sensor_type;location;lat;lon;timestamp;P1;durP1;ratioP1;P2;durP2;ratioP2
71148;SDS011;59072;42.144;25.200;2022-12-18T00:00:05;95.22;;;60.75;;
71148;SDS011;59072;42.144;25.200;2022-12-18T00:02:31;87.68;;;47.78;;
71148;SDS011;59072;42.144;25.200;2022-12-18T00:04:57;113.03;;;78.45;;
71148;SDS011;59072;42.144;25.200;2022-12-18T00:07:24;98.30;;;63.78;;
71148;SDS011;59072;42.144;25.200;2022-12-18T00:09:49;94.50;;;61.67;;
71148;SDS011;59072;42.144;25.200;2022-12-18T00:12:14;80.32;;;47.13;;
71148;SDS011;59072;42.144;25.200;2022-12-18T00:14:40;65.95;;;33.17;;
71148;SDS011;59072;42.144;25.200;2022-12-18T00:17:05;58.60;;;30.70;;
71148;SDS011;59072;42.144;25.200;2022-12-18T00:19:31;72.18;;;33.10;;
71148;SDS011;59072;42.144;25.200;2022-12-18T00:21:56;78.03;;;34.45;;
71148;SDS011;59072;42.144;25.200;2022-12-18T00:24:23;77.97;;;34.72;;
71148;SDS011;59072;42.144;25.200;2022-12-18T00:26:48;72.85;;;32.78;;
71148;SDS011;59072;42.144;25.200;2022-12-18T00:29:14;65.43;;;31.38;;
71148;SDS011;59072;42.144;25.200;2022-12-18T00:31:39;70.07;;;32.42;;
71148;SDS011;59072;42.144;25.200;2022-12-18T00:34:08;73.82;;;34.53;;
71148;SDS011;59072;42.144;25.200;2022-12-18T00:36:36;61.65;;;31.65;;
71148;SDS011;59072;42.144;25.200;2022-12-18T00:39:03;67.95;;;32.05;;
71148;SDS011;59072;42.144;25.200;2022-12-18T00:44:14;59.20;;;30.33;;
71148;SDS011;59072;42.144;25.200;2022-12-18T00:46:42;66.47;;;32.13;;
71148;SDS011;59072;42.144;25.200;2022-12-18T00:49:08;58.03;;;30.60;;
71148;SDS011;59072;42.144;25.200;2022-12-18T00:51:34;63.83;;;30.83;;
71148;SDS011;59072;42.144;25.200;2022-12-18T00:53:59;69.53;;;33.85;;
71148;SDS011;59072;42.144;25.200;2022-12-18T00:56:25;62.05;;;31.90;;
71148;SDS011;59072;42.144;25.200;2022-12-18T00:58:50;61.55;;;30.75;;
71148;SDS011;59072;42.144;25.200;2022-12-18T01:01:16;65.13;;;31.80;;
71148;SDS011;59072;42.144;25.200;2022-12-18T01:03:42;65.63;;;34.45;;
71148;SDS011;59072;42.144;25.200;2022-12-18T01:06:08;67.85;;;33.65;;
71148;SDS011;59072;42.144;25.200;2022-12-18T01:08:36;61.28;;;31.45;;
71148;SDS011;59072;42.144;25.200;2022-12-18T01:11:13;62.97;;;31.33;;
71148;SDS011;59072;42.144;25.200;2022-12-18T01:13:40;59.20;;;30.85;;
71148;SDS011;59072;42.144;25.200;2022-12-18T01:16:06;61.15;;;31.58;;
71148;SDS011;59072;42.144;25.200;2022-12-18T01:18:31;60.85;;;31.48;;
71148;SDS011;59072;42.144;25.200;2022-12-18T01:20:57;56.95;;;30.48;;
71148;SDS011;59072;42.144;25.200;2022-12-18T01:23:26;58.33;;;30.58;;
71148;SDS011;59072;42.144;25.200;2022-12-18T01:25:52;59.63;;;32.30;;
71148;SDS011;59072;42.144;25.200;2022-12-18T01:28:17;59.78;;;32.42;;
71148;SDS011;59072;42.144;25.200;2022-12-18T01:30:43;64.63;;;32.60;;
71148;SDS011;59072;42.144;25.200;2022-12-18T01:33:08;63.25;;;31.65;;
71148;SDS011;59072;42.144;25.200;2022-12-18T01:35:39;59.72;;;31.63;;
71148;SDS011;59072;42.144;25.200;2022-12-18T01:38:05;63.50;;;32.08;;
71148;SDS011;59072;42.144;25.200;2022-12-18T01:40:30;57.40;;;30.98;;
71148;SDS011;59072;42.144;25.200;2022-12-18T01:42:56;59.30;;;29.92;;
71148;SDS011;59072;42.144;25.200;2022-12-18T01:45:22;59.28;;;30.42;;
71148;SDS011;59072;42.144;25.200;2022-12-18T01:47:57;55.33;;;28.60;;
71148;SDS011;59072;42.144;25.200;2022-12-18T01:53:07;61.70;;;31.65;;
71148;SDS011;59072;42.144;25.200;2022-12-18T01:55:46;58.72;;;30.73;;
71148;SDS011;59072;42.144;25.200;2022-12-18T01:58:17;60.50;;;30.02;;
71148;SDS011;59072;42.144;25.200;2022-12-18T02:00:45;61.08;;;30.60;;
71148;SDS011;59072;42.144;25.200;2022-12-18T02:03:10;63.35;;;31.17;;
71148;SDS011;59072;42.144;25.200;2022-12-18T02:10:51;61.38;;;31.35;;
71148;SDS011;59072;42.144;25.200;2022-12-18T02:13:32;59.20;;;29.35;;
71148;SDS011;59072;42.144;25.200;2022-12-18T02:18:47;59.78;;;32.30;;
71148;SDS011;59072;42.144;25.200;2022-12-18T02:21:28;55.58;;;30.00;;
71148;SDS011;59072;42.144;25.200;2022-12-18T02:26:50;56.00;;;30.95;;
71148;SDS011;59072;42.144;25.200;2022-12-18T02:29:22;65.90;;;32.03;;
71148;SDS011;59072;42.144;25.200;2022-12-18T02:31:53;76.72;;;42.17;;
71148;SDS011;59072;42.144;25.200;2022-12-18T02:34:24;65.28;;;33.55;;
71148;SDS011;59072;42.144;25.200;2022-12-18T02:36:53;59.28;;;30.15;;
71148;SDS011;59072;42.144;25.200;2022-12-18T02:41:48;105.23;;;58.30;;
71148;SDS011;59072;42.144;25.200;2022-12-18T02:44:15;96.90;;;52.83;;
71148;SDS011;59072;42.144;25.200;2022-12-18T02:46:41;72.78;;;37.47;;
71148;SDS011;59072;42.144;25.200;2022-12-18T02:51:50;104.95;;;53.90;;
71148;SDS011;59072;42.144;25.200;2022-12-18T02:57:12;78.43;;;36.10;;
71148;SDS011;59072;42.144;25.200;2022-12-18T02:59:49;61.03;;;32.88;;
71148;SDS011;59072;42.144;25.200;2022-12-18T03:02:45;67.28;;;34.60;;
71148;SDS011;59072;42.144;25.200;2022-12-18T03:05:17;97.68;;;47.10;;
71148;SDS011;59072;42.144;25.200;2022-12-18T03:08:03;230.52;;;107.30;;
71148;SDS011;59072;42.144;25.200;2022-12-18T03:10:34;294.73;;;148.48;;
71148;SDS011;59072;42.144;25.200;2022-12-18T03:13:06;181.40;;;88.93;;
71148;SDS011;59072;42.144;25.200;2022-12-18T03:15:37;109.28;;;48.22;;
71148;SDS011;59072;42.144;25.200;2022-12-18T03:18:19;166.18;;;78.60;;
71148;SDS011;59072;42.144;25.200;2022-12-18T03:20:48;106.38;;;47.22;;
71148;SDS011;59072;42.144;25.200;2022-12-18T03:23:17;113.30;;;54.05;;
71148;SDS011;59072;42.144;25.200;2022-12-18T03:25:46;97.93;;;46.22;;
71148;SDS011;59072;42.144;25.200;2022-12-18T03:28:15;96.03;;;44.85;;
71148;SDS011;59072;42.144;25.200;2022-12-18T03:30:45;72.65;;;33.75;;
71148;SDS011;59072;42.144;25.200;2022-12-18T03:33:23;72.93;;;34.10;;
71148;SDS011;59072;42.144;25.200;2022-12-18T03:38:18;70.05;;;35.00;;
71148;SDS011;59072;42.144;25.200;2022-12-18T03:43:10;67.53;;;34.55;;
71148;SDS011;59072;42.144;25.200;2022-12-18T03:46:04;68.00;;;33.95;;
71148;SDS011;59072;42.144;25.200;2022-12-18T03:48:57;65.57;;;32.28;;
71148;SDS011;59072;42.144;25.200;2022-12-18T03:54:15;66.00;;;32.47;;
71148;SDS011;59072;42.144;25.200;2022-12-18T03:56:44;64.43;;;32.42;;
71148;SDS011;59072;42.144;25.200;2022-12-18T03:59:13;65.43;;;32.28;;
71148;SDS011;59072;42.144;25.200;2022-12-18T04:01:45;59.75;;;29.52;;
71148;SDS011;59072;42.144;25.200;2022-12-18T04:04:13;60.15;;;29.95;;
71148;SDS011;59072;42.144;25.200;2022-12-18T04:06:40;61.13;;;30.75;;
71148;SDS011;59072;42.144;25.200;2022-12-18T04:09:07;54.67;;;26.65;;
71148;SDS011;59072;42.144;25.200;2022-12-18T04:11:32;53.03;;;28.20;;
71148;SDS011;59072;42.144;25.200;2022-12-18T04:13:58;57.97;;;29.90;;
71148;SDS011;59072;42.144;25.200;2022-12-18T04:16:24;53.25;;;28.23;;
71148;SDS011;59072;42.144;25.200;2022-12-18T04:18:51;54.55;;;29.33;;
71148;SDS011;59072;42.144;25.200;2022-12-18T04:21:17;56.72;;;28.23;;
71148;SDS011;59072;42.144;25.200;2022-12-18T04:23:42;56.50;;;29.45;;
71148;SDS011;59072;42.144;25.200;2022-12-18T04:26:08;51.88;;;27.23;;
71148;SDS011;59072;42.144;25.200;2022-12-18T04:28:33;56.28;;;30.55;;
71148;SDS011;59072;42.144;25.200;2022-12-18T04:30:59;57.72;;;31.35;;
71148;SDS011;59072;42.144;25.200;2022-12-18T04:33:24;71.20;;;37.05;;
71148;SDS011;59072;42.144;25.200;2022-12-18T04:35:49;67.30;;;39.33;;
71148;SDS011;59072;42.144;25.200;2022-12-18T04:38:15;68.50;;;35.05;;
71148;SDS011;59072;42.144;25.200;2022-12-18T04:40:41;64.32;;;33.83;;
71148;SDS011;59072;42.144;25.200;2022-12-18T04:43:06;63.05;;;30.50;;
71148;SDS011;59072;42.144;25.200;2022-12-18T04:45:32;61.40;;;30.65;;
71148;SDS011;59072;42.144;25.200;2022-12-18T04:47:58;59.72;;;29.20;;
71148;SDS011;59072;42.144;25.200;2022-12-18T04:50:24;56.97;;;28.63;;
71148;SDS011;59072;42.144;25.200;2022-12-18T04:52:49;61.25;;;29.52;;
71148;SDS011;59072;42.144;25.200;2022-12-18T04:55:15;61.95;;;30.73;;
71148;SDS011;59072;42.144;25.200;2022-12-18T04:57:40;68.25;;;34.03;;
71148;SDS011;59072;42.144;25.200;2022-12-18T05:00:06;66.07;;;31.80;;
71148;SDS011;59072;42.144;25.200;2022-12-18T05:02:32;73.47;;;35.20;;
71148;SDS011;59072;42.144;25.200;2022-12-18T05:04:57;86.93;;;43.05;;
71148;SDS011;59072;42.144;25.200;2022-12-18T05:07:23;75.47;;;39.35;;
71148;SDS011;59072;42.144;25.200;2022-12-18T05:09:48;68.25;;;36.35;;
71148;SDS011;59072;42.144;25.200;2022-12-18T05:12:14;130.10;;;62.28;;
71148;SDS011;59072;42.144;25.200;2022-12-18T05:14:39;67.55;;;33.88;;
71148;SDS011;59072;42.144;25.200;2022-12-18T05:17:04;61.38;;;31.25;;
71148;SDS011;59072;42.144;25.200;2022-12-18T05:19:30;67.07;;;35.03;;
71148;SDS011;59072;42.144;25.200;2022-12-18T05:21:55;61.55;;;30.48;;
71148;SDS011;59072;42.144;25.200;2022-12-18T05:24:21;55.40;;;28.95;;
71148;SDS011;59072;42.144;25.200;2022-12-18T05:26:46;53.72;;;29.33;;
71148;SDS011;59072;42.144;25.200;2022-12-18T05:29:12;58.63;;;30.77;;
71148;SDS011;59072;42.144;25.200;2022-12-18T05:31:38;69.88;;;36.58;;
71148;SDS011;59072;42.144;25.200;2022-12-18T05:34:04;62.67;;;31.00;;
71148;SDS011;59072;42.144;25.200;2022-12-18T05:36:30;49.10;;;26.15;;
71148;SDS011;59072;42.144;25.200;2022-12-18T05:38:55;50.05;;;26.67;;
71148;SDS011;59072;42.144;25.200;2022-12-18T05:41:21;47.72;;;26.45;;
71148;SDS011;59072;42.144;25.200;2022-12-18T05:43:46;50.78;;;25.40;;
71148;SDS011;59072;42.144;25.200;2022-12-18T05:46:14;49.08;;;26.75;;
71148;SDS011;59072;42.144;25.200;2022-12-18T05:48:42;47.17;;;25.40;;
71148;SDS011;59072;42.144;25.200;2022-12-18T05:51:09;44.78;;;24.77;;
71148;SDS011;59072;42.144;25.200;2022-12-18T05:53:39;44.28;;;24.20;;
71148;SDS011;59072;42.144;25.200;2022-12-18T05:56:07;47.08;;;24.08;;
71148;SDS011;59072;42.144;25.200;2022-12-18T05:58:34;48.85;;;28.80;;
71148;SDS011;59072;42.144;25.200;2022-12-18T06:01:05;56.42;;;29.17;;
71148;SDS011;59072;42.144;25.200;2022-12-18T06:03:42;58.38;;;30.85;;
71148;SDS011;59072;42.144;25.200;2022-12-18T06:06:14;56.78;;;32.03;;
71148;SDS011;59072;42.144;25.200;2022-12-18T06:08:41;60.30;;;32.72;;
71148;SDS011;59072;42.144;25.200;2022-12-18T06:11:07;72.32;;;35.33;;
71148;SDS011;59072;42.144;25.200;2022-12-18T06:13:32;69.15;;;33.85;;
71148;SDS011;59072;42.144;25.200;2022-12-18T06:15:58;56.28;;;31.15;;
71148;SDS011;59072;42.144;25.200;2022-12-18T06:18:26;45.42;;;24.23;;
71148;SDS011;59072;42.144;25.200;2022-12-18T06:20:55;39.83;;;22.90;;
71148;SDS011;59072;42.144;25.200;2022-12-18T06:23:21;34.00;;;18.90;;
71148;SDS011;59072;42.144;25.200;2022-12-18T06:25:47;28.10;;;16.08;;
71148;SDS011;59072;42.144;25.200;2022-12-18T06:28:12;28.65;;;16.77;;
71148;SDS011;59072;42.144;25.200;2022-12-18T06:30:38;31.88;;;17.63;;
71148;SDS011;59072;42.144;25.200;2022-12-18T06:33:03;27.75;;;16.90;;
71148;SDS011;59072;42.144;25.200;2022-12-18T06:35:28;26.17;;;15.80;;
71148;SDS011;59072;42.144;25.200;2022-12-18T06:37:54;27.35;;;15.10;;
71148;SDS011;59072;42.144;25.200;2022-12-18T06:40:19;27.70;;;13.90;;
71148;SDS011;59072;42.144;25.200;2022-12-18T06:42:45;20.80;;;12.90;;
71148;SDS011;59072;42.144;25.200;2022-12-18T06:45:11;23.85;;;12.43;;
71148;SDS011;59072;42.144;25.200;2022-12-18T06:47:36;21.45;;;11.73;;
71148;SDS011;59072;42.144;25.200;2022-12-18T06:50:02;17.30;;;10.20;;
71148;SDS011;59072;42.144;25.200;2022-12-18T06:52:27;16.88;;;10.38;;
71148;SDS011;59072;42.144;25.200;2022-12-18T06:54:53;16.08;;;9.68;;
71148;SDS011;59072;42.144;25.200;2022-12-18T06:57:18;15.60;;;8.98;;
71148;SDS011;59072;42.144;25.200;2022-12-18T06:59:44;16.40;;;9.45;;
71148;SDS011;59072;42.144;25.200;2022-12-18T07:02:12;15.05;;;9.20;;
71148;SDS011;59072;42.144;25.200;2022-12-18T07:04:38;13.43;;;8.38;;
71148;SDS011;59072;42.144;25.200;2022-12-18T07:07:03;13.48;;;7.88;;
71148;SDS011;59072;42.144;25.200;2022-12-18T07:09:28;13.05;;;7.95;;
71148;SDS011;59072;42.144;25.200;2022-12-18T07:11:54;12.23;;;7.82;;
71148;SDS011;59072;42.144;25.200;2022-12-18T07:14:19;14.30;;;8.00;;
71148;SDS011;59072;42.144;25.200;2022-12-18T07:16:45;12.55;;;7.05;;
71148;SDS011;59072;42.144;25.200;2022-12-18T07:19:10;12.13;;;7.72;;
71148;SDS011;59072;42.144;25.200;2022-12-18T07:21:36;13.43;;;7.80;;
71148;SDS011;59072;42.144;25.200;2022-12-18T07:24:01;11.45;;;6.38;;
71148;SDS011;59072;42.144;25.200;2022-12-18T07:26:27;12.35;;;6.97;;
71148;SDS011;59072;42.144;25.200;2022-12-18T07:28:54;11.93;;;6.93;;
71148;SDS011;59072;42.144;25.200;2022-12-18T07:31:21;13.25;;;7.63;;
71148;SDS011;59072;42.144;25.200;2022-12-18T07:33:47;11.77;;;7.38;;
71148;SDS011;59072;42.144;25.200;2022-12-18T07:36:13;13.25;;;8.32;;
71148;SDS011;59072;42.144;25.200;2022-12-18T07:38:39;12.93;;;7.18;;
71148;SDS011;59072;42.144;25.200;2022-12-18T07:41:06;12.55;;;6.88;;
71148;SDS011;59072;42.144;25.200;2022-12-18T07:43:33;12.02;;;7.82;;
71148;SDS011;59072;42.144;25.200;2022-12-18T07:45:59;13.23;;;7.47;;
71148;SDS011;59072;42.144;25.200;2022-12-18T07:48:25;16.80;;;9.25;;
71148;SDS011;59072;42.144;25.200;2022-12-18T07:50:51;18.30;;;10.50;;
71148;SDS011;59072;42.144;25.200;2022-12-18T07:53:17;14.98;;;9.25;;
71148;SDS011;59072;42.144;25.200;2022-12-18T07:55:43;13.63;;;8.77;;
71148;SDS011;59072;42.144;25.200;2022-12-18T07:58:08;15.60;;;8.55;;
71148;SDS011;59072;42.144;25.200;2022-12-18T08:00:34;14.90;;;8.18;;
71148;SDS011;59072;42.144;25.200;2022-12-18T08:03:00;16.20;;;9.73;;
71148;SDS011;59072;42.144;25.200;2022-12-18T08:05:26;23.45;;;11.32;;
71148;SDS011;59072;42.144;25.200;2022-12-18T08:07:52;16.05;;;9.18;;
71148;SDS011;59072;42.144;25.200;2022-12-18T08:10:18;21.55;;;11.20;;
71148;SDS011;59072;42.144;25.200;2022-12-18T08:12:43;14.98;;;8.80;;
71148;SDS011;59072;42.144;25.200;2022-12-18T08:15:09;13.68;;;7.25;;
71148;SDS011;59072;42.144;25.200;2022-12-18T08:17:34;37.03;;;20.85;;
71148;SDS011;59072;42.144;25.200;2022-12-18T08:20:00;14.98;;;8.70;;
71148;SDS011;59072;42.144;25.200;2022-12-18T08:22:25;14.10;;;8.15;;
71148;SDS011;59072;42.144;25.200;2022-12-18T08:24:51;26.58;;;14.15;;
71148;SDS011;59072;42.144;25.200;2022-12-18T08:27:16;17.33;;;8.65;;
71148;SDS011;59072;42.144;25.200;2022-12-18T08:29:42;20.15;;;11.73;;
71148;SDS011;59072;42.144;25.200;2022-12-18T08:32:07;16.05;;;8.82;;
71148;SDS011;59072;42.144;25.200;2022-12-18T08:34:33;14.13;;;7.63;;
71148;SDS011;59072;42.144;25.200;2022-12-18T08:37:00;12.05;;;7.32;;
71148;SDS011;59072;42.144;25.200;2022-12-18T08:39:25;13.95;;;8.07;;
71148;SDS011;59072;42.144;25.200;2022-12-18T08:41:51;10.75;;;6.80;;
71148;SDS011;59072;42.144;25.200;2022-12-18T08:44:36;36.05;;;17.80;;
71148;SDS011;59072;42.144;25.200;2022-12-18T08:47:02;30.05;;;14.65;;
71148;SDS011;59072;42.144;25.200;2022-12-18T08:49:28;23.58;;;11.55;;
71148;SDS011;59072;42.144;25.200;2022-12-18T08:51:54;15.02;;;8.38;;
71148;SDS011;59072;42.144;25.200;2022-12-18T08:54:22;24.13;;;13.82;;
71148;SDS011;59072;42.144;25.200;2022-12-18T08:56:47;20.77;;;10.35;;
71148;SDS011;59072;42.144;25.200;2022-12-18T08:59:14;16.65;;;9.23;;
71148;SDS011;59072;42.144;25.200;2022-12-18T09:01:40;15.73;;;9.63;;
71148;SDS011;59072;42.144;25.200;2022-12-18T09:04:05;14.50;;;8.50;;
71148;SDS011;59072;42.144;25.200;2022-12-18T09:06:31;20.35;;;9.70;;
71148;SDS011;59072;42.144;25.200;2022-12-18T09:08:56;24.20;;;13.18;;
71148;SDS011;59072;42.144;25.200;2022-12-18T09:11:23;30.67;;;17.27;;
71148;SDS011;59072;42.144;25.200;2022-12-18T09:16:16;17.65;;;9.52;;
71148;SDS011;59072;42.144;25.200;2022-12-18T09:18:42;13.40;;;7.90;;
71148;SDS011;59072;42.144;25.200;2022-12-18T09:21:12;14.57;;;7.90;;
71148;SDS011;59072;42.144;25.200;2022-12-18T09:23:39;13.88;;;7.60;;
71148;SDS011;59072;42.144;25.200;2022-12-18T09:26:05;17.67;;;9.65;;
71148;SDS011;59072;42.144;25.200;2022-12-18T09:28:30;15.57;;;8.73;;
71148;SDS011;59072;42.144;25.200;2022-12-18T09:30:56;15.25;;;8.43;;
71148;SDS011;59072;42.144;25.200;2022-12-18T09:33:21;13.68;;;8.63;;
71148;SDS011;59072;42.144;25.200;2022-12-18T09:35:47;16.58;;;9.00;;
71148;SDS011;59072;42.144;25.200;2022-12-18T09:38:13;30.50;;;15.73;;
71148;SDS011;59072;42.144;25.200;2022-12-18T09:40:48;76.70;;;37.65;;
71148;SDS011;59072;42.144;25.200;2022-12-18T09:43:19;164.25;;;67.47;;
71148;SDS011;59072;42.144;25.200;2022-12-18T09:45:52;72.70;;;30.65;;
71148;SDS011;59072;42.144;25.200;2022-12-18T09:48:23;218.98;;;75.57;;
71148;SDS011;59072;42.144;25.200;2022-12-18T09:50:55;200.23;;;65.70;;
71148;SDS011;59072;42.144;25.200;2022-12-18T09:53:28;249.98;;;79.72;;
71148;SDS011;59072;42.144;25.200;2022-12-18T09:56:00;174.52;;;58.55;;
71148;SDS011;59072;42.144;25.200;2022-12-18T09:58:33;129.80;;;46.45;;
71148;SDS011;59072;42.144;25.200;2022-12-18T10:01:23;131.07;;;47.85;;
71148;SDS011;59072;42.144;25.200;2022-12-18T10:03:49;184.55;;;68.18;;
71148;SDS011;59072;42.144;25.200;2022-12-18T10:06:36;190.52;;;61.00;;
71148;SDS011;59072;42.144;25.200;2022-12-18T10:09:33;180.73;;;60.25;;
71148;SDS011;59072;42.144;25.200;2022-12-18T10:20:16;45.00;;;24.25;;
71148;SDS011;59072;42.144;25.200;2022-12-18T10:25:55;43.00;;;25.70;;
71148;SDS011;59072;42.144;25.200;2022-12-18T10:28:32;45.60;;;26.67;;
71148;SDS011;59072;42.144;25.200;2022-12-18T10:31:00;55.63;;;30.50;;
71148;SDS011;59072;42.144;25.200;2022-12-18T10:33:28;43.88;;;23.63;;
71148;SDS011;59072;42.144;25.200;2022-12-18T10:35:55;29.77;;;14.52;;
71148;SDS011;59072;42.144;25.200;2022-12-18T10:38:22;43.17;;;22.00;;
71148;SDS011;59072;42.144;25.200;2022-12-18T10:40:54;47.90;;;23.38;;
71148;SDS011;59072;42.144;25.200;2022-12-18T10:43:27;30.77;;;19.33;;
71148;SDS011;59072;42.144;25.200;2022-12-18T10:48:37;19.30;;;11.32;;
71148;SDS011;59072;42.144;25.200;2022-12-18T10:51:19;18.88;;;11.88;;
71148;SDS011;59072;42.144;25.200;2022-12-18T10:56:29;74.50;;;52.10;;
71148;SDS011;59072;42.144;25.200;2022-12-18T10:59:02;20.13;;;14.10;;
71148;SDS011;59072;42.144;25.200;2022-12-18T11:01:45;38.33;;;25.52;;
71148;SDS011;59072;42.144;25.200;2022-12-18T11:04:16;17.17;;;11.15;;
71148;SDS011;59072;42.144;25.200;2022-12-18T11:09:23;21.08;;;12.98;;
71148;SDS011;59072;42.144;25.200;2022-12-18T11:11:51;16.05;;;10.10;;
71148;SDS011;59072;42.144;25.200;2022-12-18T11:17:18;19.33;;;10.65;;
71148;SDS011;59072;42.144;25.200;2022-12-18T11:19:44;19.58;;;13.30;;
71148;SDS011;59072;42.144;25.200;2022-12-18T11:22:19;20.50;;;12.18;;
71148;SDS011;59072;42.144;25.200;2022-12-18T11:25:07;18.70;;;11.60;;
71148;SDS011;59072;42.144;25.200;2022-12-18T11:27:36;14.80;;;9.43;;
71148;SDS011;59072;42.144;25.200;2022-12-18T11:30:08;16.45;;;9.60;;
71148;SDS011;59072;42.144;25.200;2022-12-18T11:35:26;17.25;;;9.55;;
71148;SDS011;59072;42.144;25.200;2022-12-18T11:38:04;54.83;;;34.28;;
71148;SDS011;59072;42.144;25.200;2022-12-18T11:40:38;63.08;;;33.50;;
71148;SDS011;59072;42.144;25.200;2022-12-18T11:43:14;28.38;;;15.82;;
71148;SDS011;59072;42.144;25.200;2022-12-18T11:45:55;111.93;;;50.88;;
71148;SDS011;59072;42.144;25.200;2022-12-18T11:48:38;227.98;;;98.13;;
71148;SDS011;59072;42.144;25.200;2022-12-18T11:51:11;179.73;;;79.80;;
71148;SDS011;59072;42.144;25.200;2022-12-18T11:53:44;78.10;;;40.97;;
71148;SDS011;59072;42.144;25.200;2022-12-18T11:58:43;53.50;;;35.22;;
71148;SDS011;59072;42.144;25.200;2022-12-18T12:07:04;20.40;;;12.65;;
71148;SDS011;59072;42.144;25.200;2022-12-18T12:10:13;18.95;;;11.52;;
71148;SDS011;59072;42.144;25.200;2022-12-18T12:38:13;78.53;;;44.67;;
71148;SDS011;59072;42.144;25.200;2022-12-18T12:40:49;93.65;;;48.05;;
71148;SDS011;59072;42.144;25.200;2022-12-18T12:43:21;75.13;;;39.30;;
71148;SDS011;59072;42.144;25.200;2022-12-18T12:48:53;66.60;;;36.97;;
71148;SDS011;59072;42.144;25.200;2022-12-18T12:54:05;53.58;;;38.95;;
71148;SDS011;59072;42.144;25.200;2022-12-18T12:56:43;89.38;;;64.50;;
71148;SDS011;59072;42.144;25.200;2022-12-18T12:59:22;110.25;;;72.13;;
71148;SDS011;59072;42.144;25.200;2022-12-18T13:07:57;15.38;;;9.43;;
71148;SDS011;59072;42.144;25.200;2022-12-18T13:12:51;20.48;;;10.85;;
71148;SDS011;59072;42.144;25.200;2022-12-18T13:20:44;17.90;;;10.00;;
71148;SDS011;59072;42.144;25.200;2022-12-18T13:25:48;143.80;;;58.80;;
71148;SDS011;59072;42.144;25.200;2022-12-18T13:34:48;17.98;;;10.63;;
71148;SDS011;59072;42.144;25.200;2022-12-18T13:36:56;19.10;;;10.98;;
71148;SDS011;59072;42.144;25.200;2022-12-18T13:39:43;22.58;;;11.98;;
71148;SDS011;59072;42.144;25.200;2022-12-18T13:44:35;22.70;;;11.20;;
71148;SDS011;59072;42.144;25.200;2022-12-18T13:47:05;19.77;;;10.52;;
71148;SDS011;59072;42.144;25.200;2022-12-18T13:50:25;17.50;;;9.88;;
71148;SDS011;59072;42.144;25.200;2022-12-18T13:52:51;18.48;;;10.40;;
71148;SDS011;59072;42.144;25.200;2022-12-18T13:55:18;19.52;;;10.55;;
71148;SDS011;59072;42.144;25.200;2022-12-18T13:57:45;16.55;;;9.95;;
71148;SDS011;59072;42.144;25.200;2022-12-18T14:00:30;20.95;;;10.25;;
71148;SDS011;59072;42.144;25.200;2022-12-18T14:02:56;17.80;;;11.38;;
71148;SDS011;59072;42.144;25.200;2022-12-18T14:07:51;20.63;;;11.93;;
71148;SDS011;59072;42.144;25.200;2022-12-18T14:10:18;24.83;;;13.65;;
71148;SDS011;59072;42.144;25.200;2022-12-18T14:12:45;23.20;;;12.32;;
71148;SDS011;59072;42.144;25.200;2022-12-18T14:17:51;28.80;;;16.55;;
71148;SDS011;59072;42.144;25.200;2022-12-18T14:20:27;28.65;;;16.73;;
71148;SDS011;59072;42.144;25.200;2022-12-18T14:22:55;24.85;;;14.10;;
71148;SDS011;59072;42.144;25.200;2022-12-18T14:25:25;23.35;;;12.93;;
71148;SDS011;59072;42.144;25.200;2022-12-18T14:30:35;23.33;;;13.13;;
71148;SDS011;59072;42.144;25.200;2022-12-18T14:33:09;22.90;;;13.70;;
71148;SDS011;59072;42.144;25.200;2022-12-18T14:35:58;26.25;;;14.52;;
71148;SDS011;59072;42.144;25.200;2022-12-18T14:38:40;25.95;;;13.95;;
71148;SDS011;59072;42.144;25.200;2022-12-18T14:41:10;31.10;;;17.23;;
71148;SDS011;59072;42.144;25.200;2022-12-18T14:43:37;36.72;;;21.55;;
71148;SDS011;59072;42.144;25.200;2022-12-18T14:46:04;34.22;;;20.27;;
71148;SDS011;59072;42.144;25.200;2022-12-18T14:48:50;27.77;;;17.05;;
71148;SDS011;59072;42.144;25.200;2022-12-18T14:51:20;25.15;;;15.50;;
71148;SDS011;59072;42.144;25.200;2022-12-18T14:53:47;37.88;;;25.70;;
71148;SDS011;59072;42.144;25.200;2022-12-18T14:56:29;46.38;;;32.35;;
71148;SDS011;59072;42.144;25.200;2022-12-18T14:59:12;45.55;;;32.25;;
71148;SDS011;59072;42.144;25.200;2022-12-18T15:01:45;41.72;;;28.55;;
71148;SDS011;59072;42.144;25.200;2022-12-18T15:04:47;55.47;;;37.40;;
71148;SDS011;59072;42.144;25.200;2022-12-18T15:07:12;59.97;;;36.65;;
71148;SDS011;59072;42.144;25.200;2022-12-18T15:09:42;54.90;;;32.83;;
71148;SDS011;59072;42.144;25.200;2022-12-18T15:15:01;58.85;;;34.88;;
71148;SDS011;59072;42.144;25.200;2022-12-18T15:17:27;67.90;;;40.90;;
71148;SDS011;59072;42.144;25.200;2022-12-18T15:20:03;35.35;;;20.17;;
71148;SDS011;59072;42.144;25.200;2022-12-18T15:22:36;63.63;;;37.05;;
71148;SDS011;59072;42.144;25.200;2022-12-18T15:25:02;72.25;;;42.70;;
71148;SDS011;59072;42.144;25.200;2022-12-18T15:27:46;36.88;;;22.70;;
71148;SDS011;59072;42.144;25.200;2022-12-18T15:30:16;54.67;;;30.42;;
71148;SDS011;59072;42.144;25.200;2022-12-18T15:32:46;63.53;;;32.97;;
71148;SDS011;59072;42.144;25.200;2022-12-18T15:35:17;128.30;;;66.53;;
71148;SDS011;59072;42.144;25.200;2022-12-18T15:37:47;102.13;;;56.42;;
71148;SDS011;59072;42.144;25.200;2022-12-18T15:40:23;162.93;;;80.72;;
71148;SDS011;59072;42.144;25.200;2022-12-18T15:42:50;63.15;;;40.60;;
71148;SDS011;59072;42.144;25.200;2022-12-18T15:45:37;57.60;;;34.45;;
71148;SDS011;59072;42.144;25.200;2022-12-18T15:48:20;34.75;;;22.52;;
71148;SDS011;59072;42.144;25.200;2022-12-18T15:50:47;62.13;;;36.67;;
71148;SDS011;59072;42.144;25.200;2022-12-18T15:53:13;68.25;;;39.33;;
71148;SDS011;59072;42.144;25.200;2022-12-18T15:55:39;95.90;;;53.58;;
71148;SDS011;59072;42.144;25.200;2022-12-18T15:58:23;93.90;;;46.80;;
71148;SDS011;59072;42.144;25.200;2022-12-18T16:00:48;139.43;;;68.88;;
71148;SDS011;59072;42.144;25.200;2022-12-18T16:03:14;152.73;;;74.25;;
71148;SDS011;59072;42.144;25.200;2022-12-18T16:05:39;79.38;;;46.35;;
71148;SDS011;59072;42.144;25.200;2022-12-18T16:08:04;63.40;;;37.15;;
71148;SDS011;59072;42.144;25.200;2022-12-18T16:10:30;45.05;;;28.90;;
71148;SDS011;59072;42.144;25.200;2022-12-18T16:12:55;39.90;;;25.63;;
71148;SDS011;59072;42.144;25.200;2022-12-18T16:15:21;30.23;;;17.90;;
71148;SDS011;59072;42.144;25.200;2022-12-18T16:17:47;34.42;;;19.77;;
71148;SDS011;59072;42.144;25.200;2022-12-18T16:20:16;31.23;;;18.25;;
71148;SDS011;59072;42.144;25.200;2022-12-18T16:22:44;35.33;;;20.35;;
71148;SDS011;59072;42.144;25.200;2022-12-18T16:25:21;29.90;;;16.23;;
71148;SDS011;59072;42.144;25.200;2022-12-18T16:27:52;28.95;;;17.52;;
71148;SDS011;59072;42.144;25.200;2022-12-18T16:30:23;25.20;;;14.45;;
71148;SDS011;59072;42.144;25.200;2022-12-18T16:32:54;29.17;;;15.82;;
71148;SDS011;59072;42.144;25.200;2022-12-18T16:35:20;29.05;;;16.67;;
71148;SDS011;59072;42.144;25.200;2022-12-18T16:37:45;24.67;;;14.50;;